sensor_id;sensor_type;location;lat;lon;timestamp;P1;durP1;ratioP1;P2;durP2;ratioP2
71867;SDS011;59738;48.324;14.230;2023-01-20T00:00:03;9.45;;;5.88;;
71867;SDS011;59738;48.324;14.230;2023-01-20T00:02:38;12.20;;;6.55;;
71867;SDS011;59738;48.324;14.230;2023-01-20T00:05:06;10.13;;;6.13;;
71867;SDS011;59738;48.324;14.230;2023-01-20T00:07:36;10.30;;;5.70;;
71867;SDS011;59738;48.324;14.230;2023-01-20T00:10:07;14.43;;;6.80;;
71867;SDS011;59738;48.324;14.230;2023-01-20T00:12:35;9.82;;;6.25;;
71867;SDS011;59738;48.324;14.230;2023-01-20T00:15:03;10.57;;;5.60;;
71867;SDS011;59738;48.324;14.230;2023-01-20T00:17:33;12.43;;;6.25;;
71867;SDS011;59738;48.324;14.230;2023-01-20T00:20:01;10.97;;;5.10;;
71867;SDS011;59738;48.324;14.230;2023-01-20T00:22:30;8.60;;;5.72;;
71867;SDS011;59738;48.324;14.230;2023-01-20T00:24:59;10.02;;;5.97;;
71867;SDS011;59738;48.324;14.230;2023-01-20T00:27:28;13.48;;;5.90;;
71867;SDS011;59738;48.324;14.230;2023-01-20T00:29:57;12.60;;;6.85;;
71867;SDS011;59738;48.324;14.230;2023-01-20T00:32:24;10.53;;;5.40;;
71867;SDS011;59738;48.324;14.230;2023-01-20T00:34:52;8.30;;;5.93;;
71867;SDS011;59738;48.324;14.230;2023-01-20T00:37:21;11.90;;;6.57;;
71867;SDS011;59738;48.324;14.230;2023-01-20T00:39:49;8.50;;;5.88;;
71867;SDS011;59738;48.324;14.230;2023-01-20T00:42:18;9.88;;;6.60;;
71867;SDS011;59738;48.324;14.230;2023-01-20T00:44:46;11.80;;;6.93;;
71867;SDS011;59738;48.324;14.230;2023-01-20T00:47:14;9.13;;;5.47;;
71867;SDS011;59738;48.324;14.230;2023-01-20T00:49:41;15.30;;;7.63;;
71867;SDS011;59738;48.324;14.230;2023-01-20T00:52:10;15.55;;;6.07;;
71867;SDS011;59738;48.324;14.230;2023-01-20T00:54:38;8.40;;;4.82;;
71867;SDS011;59738;48.324;14.230;2023-01-20T00:57:05;9.63;;;5.40;;
71867;SDS011;59738;48.324;14.230;2023-01-20T00:59:34;8.95;;;4.93;;
71867;SDS011;59738;48.324;14.230;2023-01-20T01:02:02;10.32;;;5.80;;
71867;SDS011;59738;48.324;14.230;2023-01-20T01:04:30;9.75;;;5.63;;
71867;SDS011;59738;48.324;14.230;2023-01-20T01:06:58;8.80;;;5.72;;
71867;SDS011;59738;48.324;14.230;2023-01-20T01:09:25;8.83;;;5.43;;
71867;SDS011;59738;48.324;14.230;2023-01-20T01:11:52;12.23;;;5.90;;
71867;SDS011;59738;48.324;14.230;2023-01-20T01:14:20;11.23;;;6.28;;
71867;SDS011;59738;48.324;14.230;2023-01-20T01:16:49;9.52;;;6.35;;
71867;SDS011;59738;48.324;14.230;2023-01-20T01:19:17;13.68;;;5.88;;
71867;SDS011;59738;48.324;14.230;2023-01-20T01:21:44;10.67;;;5.60;;
71867;SDS011;59738;48.324;14.230;2023-01-20T01:24:12;8.63;;;5.93;;
71867;SDS011;59738;48.324;14.230;2023-01-20T01:26:39;11.30;;;5.90;;
71867;SDS011;59738;48.324;14.230;2023-01-20T01:29:07;9.35;;;5.93;;
71867;SDS011;59738;48.324;14.230;2023-01-20T01:31:34;10.80;;;6.40;;
71867;SDS011;59738;48.324;14.230;2023-01-20T01:34:05;10.87;;;6.07;;
71867;SDS011;59738;48.324;14.230;2023-01-20T01:36:33;11.18;;;5.93;;
71867;SDS011;59738;48.324;14.230;2023-01-20T01:39:01;12.88;;;6.43;;
71867;SDS011;59738;48.324;14.230;2023-01-20T01:41:28;11.15;;;6.35;;
71867;SDS011;59738;48.324;14.230;2023-01-20T01:44:05;10.63;;;5.43;;
71867;SDS011;59738;48.324;14.230;2023-01-20T01:46:34;11.67;;;5.40;;
71867;SDS011;59738;48.324;14.230;2023-01-20T01:49:02;10.18;;;5.60;;
71867;SDS011;59738;48.324;14.230;2023-01-20T01:51:34;11.35;;;5.95;;
71867;SDS011;59738;48.324;14.230;2023-01-20T01:54:04;11.13;;;5.38;;
71867;SDS011;59738;48.324;14.230;2023-01-20T01:56:35;10.18;;;5.10;;
71867;SDS011;59738;48.324;14.230;2023-01-20T01:59:04;22.73;;;6.27;;
71867;SDS011;59738;48.324;14.230;2023-01-20T02:01:35;9.18;;;5.55;;
71867;SDS011;59738;48.324;14.230;2023-01-20T02:04:07;14.13;;;7.43;;
71867;SDS011;59738;48.324;14.230;2023-01-20T02:06:38;13.57;;;7.30;;
71867;SDS011;59738;48.324;14.230;2023-01-20T02:09:07;13.10;;;7.10;;
71867;SDS011;59738;48.324;14.230;2023-01-20T02:11:35;13.90;;;6.10;;
71867;SDS011;59738;48.324;14.230;2023-01-20T02:14:04;13.85;;;7.45;;
71867;SDS011;59738;48.324;14.230;2023-01-20T02:16:35;13.95;;;7.70;;
71867;SDS011;59738;48.324;14.230;2023-01-20T02:19:17;10.10;;;5.95;;
71867;SDS011;59738;48.324;14.230;2023-01-20T02:25:02;14.63;;;6.57;;
71867;SDS011;59738;48.324;14.230;2023-01-20T02:30:38;11.43;;;7.65;;
71867;SDS011;59738;48.324;14.230;2023-01-20T02:33:22;14.77;;;7.90;;
71867;SDS011;59738;48.324;14.230;2023-01-20T02:35:54;16.25;;;7.80;;
71867;SDS011;59738;48.324;14.230;2023-01-20T02:38:25;16.27;;;7.83;;
71867;SDS011;59738;48.324;14.230;2023-01-20T02:41:00;15.23;;;8.52;;
71867;SDS011;59738;48.324;14.230;2023-01-20T02:43:34;18.77;;;9.00;;
71867;SDS011;59738;48.324;14.230;2023-01-20T02:46:07;19.00;;;9.27;;
71867;SDS011;59738;48.324;14.230;2023-01-20T02:48:40;16.23;;;9.23;;
71867;SDS011;59738;48.324;14.230;2023-01-20T02:51:10;15.37;;;9.03;;
71867;SDS011;59738;48.324;14.230;2023-01-20T02:53:41;15.85;;;8.52;;
71867;SDS011;59738;48.324;14.230;2023-01-20T02:56:11;15.88;;;9.57;;
71867;SDS011;59738;48.324;14.230;2023-01-20T02:58:39;16.25;;;8.90;;
71867;SDS011;59738;48.324;14.230;2023-01-20T03:01:10;12.50;;;7.93;;
71867;SDS011;59738;48.324;14.230;2023-01-20T03:03:42;14.17;;;7.90;;
71867;SDS011;59738;48.324;14.230;2023-01-20T03:06:11;16.33;;;8.52;;
71867;SDS011;59738;48.324;14.230;2023-01-20T03:08:49;19.30;;;9.88;;
71867;SDS011;59738;48.324;14.230;2023-01-20T03:11:18;33.15;;;14.80;;
71867;SDS011;59738;48.324;14.230;2023-01-20T03:13:47;25.10;;;13.07;;
71867;SDS011;59738;48.324;14.230;2023-01-20T03:16:17;33.63;;;16.43;;
71867;SDS011;59738;48.324;14.230;2023-01-20T03:18:48;32.10;;;16.20;;
71867;SDS011;59738;48.324;14.230;2023-01-20T03:21:16;37.45;;;17.20;;
71867;SDS011;59738;48.324;14.230;2023-01-20T03:23:46;38.55;;;16.85;;
71867;SDS011;59738;48.324;14.230;2023-01-20T03:26:15;43.35;;;19.10;;
71867;SDS011;59738;48.324;14.230;2023-01-20T03:28:44;34.23;;;14.90;;
71867;SDS011;59738;48.324;14.230;2023-01-20T03:31:14;35.20;;;15.57;;
71867;SDS011;59738;48.324;14.230;2023-01-20T03:33:44;32.83;;;15.48;;
71867;SDS011;59738;48.324;14.230;2023-01-20T03:36:14;38.17;;;16.35;;
71867;SDS011;59738;48.324;14.230;2023-01-20T03:38:42;33.97;;;14.48;;
71867;SDS011;59738;48.324;14.230;2023-01-20T03:41:13;31.97;;;13.93;;
71867;SDS011;59738;48.324;14.230;2023-01-20T03:43:44;31.67;;;13.68;;
71867;SDS011;59738;48.324;14.230;2023-01-20T03:46:18;31.67;;;14.55;;
71867;SDS011;59738;48.324;14.230;2023-01-20T03:48:57;32.03;;;14.85;;
71867;SDS011;59738;48.324;14.230;2023-01-20T03:51:31;33.40;;;15.50;;
71867;SDS011;59738;48.324;14.230;2023-01-20T03:54:02;32.33;;;14.63;;
71867;SDS011;59738;48.324;14.230;2023-01-20T03:56:34;26.20;;;12.80;;
71867;SDS011;59738;48.324;14.230;2023-01-20T03:59:06;27.63;;;13.90;;
71867;SDS011;59738;48.324;14.230;2023-01-20T04:01:36;24.55;;;11.23;;
71867;SDS011;59738;48.324;14.230;2023-01-20T04:04:07;23.65;;;13.15;;
71867;SDS011;59738;48.324;14.230;2023-01-20T04:06:37;23.73;;;11.60;;
71867;SDS011;59738;48.324;14.230;2023-01-20T04:09:08;20.40;;;10.60;;
71867;SDS011;59738;48.324;14.230;2023-01-20T04:11:37;16.58;;;8.65;;
71867;SDS011;59738;48.324;14.230;2023-01-20T04:14:06;16.25;;;9.32;;
71867;SDS011;59738;48.324;14.230;2023-01-20T04:16:34;12.98;;;7.22;;
71867;SDS011;59738;48.324;14.230;2023-01-20T04:19:02;13.13;;;6.90;;
71867;SDS011;59738;48.324;14.230;2023-01-20T04:21:31;15.75;;;8.05;;
71867;SDS011;59738;48.324;14.230;2023-01-20T04:24:02;10.82;;;7.00;;
71867;SDS011;59738;48.324;14.230;2023-01-20T04:26:31;13.68;;;8.10;;
71867;SDS011;59738;48.324;14.230;2023-01-20T04:28:59;11.23;;;7.05;;
71867;SDS011;59738;48.324;14.230;2023-01-20T04:31:33;12.97;;;7.40;;
71867;SDS011;59738;48.324;14.230;2023-01-20T04:34:01;15.20;;;7.93;;
71867;SDS011;59738;48.324;14.230;2023-01-20T04:36:28;13.80;;;7.20;;
71867;SDS011;59738;48.324;14.230;2023-01-20T04:38:56;13.10;;;7.70;;
71867;SDS011;59738;48.324;14.230;2023-01-20T04:41:25;16.40;;;7.78;;
71867;SDS011;59738;48.324;14.230;2023-01-20T04:43:52;16.60;;;7.73;;
71867;SDS011;59738;48.324;14.230;2023-01-20T04:46:19;14.23;;;7.72;;
71867;SDS011;59738;48.324;14.230;2023-01-20T04:48:47;16.33;;;7.75;;
71867;SDS011;59738;48.324;14.230;2023-01-20T04:51:14;16.85;;;7.47;;
71867;SDS011;59738;48.324;14.230;2023-01-20T04:53:42;12.25;;;7.70;;
71867;SDS011;59738;48.324;14.230;2023-01-20T04:56:10;17.80;;;7.37;;
71867;SDS011;59738;48.324;14.230;2023-01-20T04:58:39;14.27;;;7.80;;
71867;SDS011;59738;48.324;14.230;2023-01-20T05:01:08;13.57;;;8.50;;
71867;SDS011;59738;48.324;14.230;2023-01-20T05:03:35;13.23;;;7.65;;
71867;SDS011;59738;48.324;14.230;2023-01-20T05:06:03;15.05;;;7.22;;
71867;SDS011;59738;48.324;14.230;2023-01-20T05:08:33;14.20;;;7.80;;
71867;SDS011;59738;48.324;14.230;2023-01-20T05:11:01;14.18;;;7.60;;
71867;SDS011;59738;48.324;14.230;2023-01-20T05:13:29;12.90;;;7.20;;
71867;SDS011;59738;48.324;14.230;2023-01-20T05:15:58;14.27;;;7.88;;
71867;SDS011;59738;48.324;14.230;2023-01-20T05:18:25;12.30;;;6.47;;
71867;SDS011;59738;48.324;14.230;2023-01-20T05:20:52;13.53;;;7.37;;
71867;SDS011;59738;48.324;14.230;2023-01-20T05:23:20;13.18;;;7.85;;
71867;SDS011;59738;48.324;14.230;2023-01-20T05:25:50;13.48;;;7.97;;
71867;SDS011;59738;48.324;14.230;2023-01-20T05:28:18;15.52;;;7.95;;
71867;SDS011;59738;48.324;14.230;2023-01-20T05:30:45;15.73;;;8.93;;
71867;SDS011;59738;48.324;14.230;2023-01-20T05:33:16;14.67;;;7.60;;
71867;SDS011;59738;48.324;14.230;2023-01-20T05:35:44;12.77;;;7.30;;
71867;SDS011;59738;48.324;14.230;2023-01-20T05:38:12;15.60;;;7.60;;
71867;SDS011;59738;48.324;14.230;2023-01-20T05:40:39;19.85;;;7.57;;
71867;SDS011;59738;48.324;14.230;2023-01-20T05:43:07;15.65;;;8.52;;
71867;SDS011;59738;48.324;14.230;2023-01-20T05:45:34;17.20;;;8.47;;
71867;SDS011;59738;48.324;14.230;2023-01-20T05:48:02;17.20;;;8.32;;
71867;SDS011;59738;48.324;14.230;2023-01-20T05:50:32;15.15;;;7.78;;
71867;SDS011;59738;48.324;14.230;2023-01-20T05:53:00;12.27;;;6.97;;
71867;SDS011;59738;48.324;14.230;2023-01-20T05:55:27;16.38;;;7.85;;
71867;SDS011;59738;48.324;14.230;2023-01-20T05:57:54;15.30;;;7.67;;
71867;SDS011;59738;48.324;14.230;2023-01-20T06:00:22;14.43;;;7.35;;
71867;SDS011;59738;48.324;14.230;2023-01-20T06:02:49;15.60;;;7.75;;
71867;SDS011;59738;48.324;14.230;2023-01-20T06:05:17;12.00;;;6.70;;
71867;SDS011;59738;48.324;14.230;2023-01-20T06:07:46;11.77;;;6.68;;
71867;SDS011;59738;48.324;14.230;2023-01-20T06:10:14;15.20;;;8.73;;
71867;SDS011;59738;48.324;14.230;2023-01-20T06:12:42;11.85;;;6.75;;
71867;SDS011;59738;48.324;14.230;2023-01-20T06:15:10;14.48;;;8.55;;
71867;SDS011;59738;48.324;14.230;2023-01-20T06:17:37;13.52;;;7.90;;
71867;SDS011;59738;48.324;14.230;2023-01-20T06:20:05;14.70;;;7.18;;
71867;SDS011;59738;48.324;14.230;2023-01-20T06:22:33;16.70;;;7.27;;
71867;SDS011;59738;48.324;14.230;2023-01-20T06:25:02;17.63;;;8.35;;
71867;SDS011;59738;48.324;14.230;2023-01-20T06:27:30;17.88;;;7.47;;
71867;SDS011;59738;48.324;14.230;2023-01-20T06:29:58;13.80;;;7.40;;
71867;SDS011;59738;48.324;14.230;2023-01-20T06:32:25;15.15;;;7.18;;
71867;SDS011;59738;48.324;14.230;2023-01-20T06:34:53;14.73;;;8.00;;
71867;SDS011;59738;48.324;14.230;2023-01-20T06:37:20;14.45;;;7.43;;
71867;SDS011;59738;48.324;14.230;2023-01-20T06:39:48;13.18;;;7.40;;
71867;SDS011;59738;48.324;14.230;2023-01-20T06:42:16;14.40;;;7.32;;
71867;SDS011;59738;48.324;14.230;2023-01-20T06:44:44;14.07;;;7.72;;
71867;SDS011;59738;48.324;14.230;2023-01-20T06:47:11;14.93;;;7.27;;
71867;SDS011;59738;48.324;14.230;2023-01-20T06:49:39;18.60;;;6.88;;
71867;SDS011;59738;48.324;14.230;2023-01-20T06:52:06;12.45;;;6.82;;
71867;SDS011;59738;48.324;14.230;2023-01-20T06:54:34;14.23;;;6.85;;
71867;SDS011;59738;48.324;14.230;2023-01-20T06:57:02;17.20;;;7.40;;
71867;SDS011;59738;48.324;14.230;2023-01-20T06:59:31;16.33;;;7.07;;
71867;SDS011;59738;48.324;14.230;2023-01-20T07:01:58;12.05;;;7.10;;
71867;SDS011;59738;48.324;14.230;2023-01-20T07:04:26;15.27;;;7.32;;
71867;SDS011;59738;48.324;14.230;2023-01-20T07:06:53;13.25;;;7.60;;
71867;SDS011;59738;48.324;14.230;2023-01-20T07:09:21;11.05;;;6.60;;
71867;SDS011;59738;48.324;14.230;2023-01-20T07:11:48;12.80;;;6.63;;
71867;SDS011;59738;48.324;14.230;2023-01-20T07:14:16;16.08;;;7.75;;
71867;SDS011;59738;48.324;14.230;2023-01-20T07:16:46;16.52;;;7.75;;
71867;SDS011;59738;48.324;14.230;2023-01-20T07:19:18;17.83;;;7.65;;
71867;SDS011;59738;48.324;14.230;2023-01-20T07:21:45;11.55;;;6.80;;
71867;SDS011;59738;48.324;14.230;2023-01-20T07:24:13;13.80;;;7.50;;
71867;SDS011;59738;48.324;14.230;2023-01-20T07:26:40;14.10;;;8.32;;
71867;SDS011;59738;48.324;14.230;2023-01-20T07:29:08;15.05;;;7.07;;
71867;SDS011;59738;48.324;14.230;2023-01-20T07:31:35;13.48;;;7.65;;
71867;SDS011;59738;48.324;14.230;2023-01-20T07:34:04;18.30;;;8.45;;
71867;SDS011;59738;48.324;14.230;2023-01-20T07:36:32;11.00;;;7.07;;
71867;SDS011;59738;48.324;14.230;2023-01-20T07:38:59;13.00;;;6.53;;
71867;SDS011;59738;48.324;14.230;2023-01-20T07:41:27;11.93;;;7.60;;
71867;SDS011;59738;48.324;14.230;2023-01-20T07:43:54;14.95;;;7.25;;
71867;SDS011;59738;48.324;14.230;2023-01-20T07:46:22;16.08;;;8.07;;
71867;SDS011;59738;48.324;14.230;2023-01-20T07:48:49;13.80;;;7.47;;
71867;SDS011;59738;48.324;14.230;2023-01-20T07:51:18;12.75;;;7.50;;
71867;SDS011;59738;48.324;14.230;2023-01-20T07:53:46;16.42;;;7.47;;
71867;SDS011;59738;48.324;14.230;2023-01-20T07:56:16;16.23;;;8.18;;
71867;SDS011;59738;48.324;14.230;2023-01-20T07:58:44;11.98;;;6.55;;
71867;SDS011;59738;48.324;14.230;2023-01-20T08:01:13;12.23;;;7.70;;
71867;SDS011;59738;48.324;14.230;2023-01-20T08:03:43;14.70;;;7.15;;
71867;SDS011;59738;48.324;14.230;2023-01-20T08:06:11;13.60;;;7.57;;
71867;SDS011;59738;48.324;14.230;2023-01-20T08:08:41;15.45;;;7.65;;
71867;SDS011;59738;48.324;14.230;2023-01-20T08:11:09;15.23;;;8.13;;
71867;SDS011;59738;48.324;14.230;2023-01-20T08:13:38;12.83;;;7.43;;
71867;SDS011;59738;48.324;14.230;2023-01-20T08:16:07;11.82;;;7.30;;
71867;SDS011;59738;48.324;14.230;2023-01-20T08:18:35;16.95;;;7.47;;
71867;SDS011;59738;48.324;14.230;2023-01-20T08:21:04;16.15;;;8.10;;
71867;SDS011;59738;48.324;14.230;2023-01-20T08:23:33;16.45;;;8.25;;
71867;SDS011;59738;48.324;14.230;2023-01-20T08:26:03;15.50;;;8.90;;
71867;SDS011;59738;48.324;14.230;2023-01-20T08:28:32;13.93;;;7.93;;
71867;SDS011;59738;48.324;14.230;2023-01-20T08:31:04;16.90;;;8.20;;
71867;SDS011;59738;48.324;14.230;2023-01-20T08:33:32;16.20;;;7.88;;
71867;SDS011;59738;48.324;14.230;2023-01-20T08:36:04;13.90;;;7.95;;
71867;SDS011;59738;48.324;14.230;2023-01-20T08:38:32;16.57;;;8.60;;
71867;SDS011;59738;48.324;14.230;2023-01-20T08:41:00;14.13;;;7.40;;
71867;SDS011;59738;48.324;14.230;2023-01-20T08:43:29;14.10;;;8.07;;
71867;SDS011;59738;48.324;14.230;2023-01-20T08:45:57;14.15;;;8.38;;
71867;SDS011;59738;48.324;14.230;2023-01-20T08:48:25;15.80;;;8.90;;
71867;SDS011;59738;48.324;14.230;2023-01-20T08:50:52;17.07;;;9.63;;
71867;SDS011;59738;48.324;14.230;2023-01-20T08:53:20;15.50;;;8.20;;
71867;SDS011;59738;48.324;14.230;2023-01-20T08:55:54;14.15;;;8.23;;
71867;SDS011;59738;48.324;14.230;2023-01-20T08:58:22;12.20;;;7.60;;
71867;SDS011;59738;48.324;14.230;2023-01-20T09:00:51;10.63;;;6.97;;
71867;SDS011;59738;48.324;14.230;2023-01-20T09:03:18;12.23;;;7.30;;
71867;SDS011;59738;48.324;14.230;2023-01-20T09:05:46;17.42;;;8.38;;
71867;SDS011;59738;48.324;14.230;2023-01-20T09:08:14;17.23;;;9.00;;
71867;SDS011;59738;48.324;14.230;2023-01-20T09:10:42;11.65;;;6.63;;
71867;SDS011;59738;48.324;14.230;2023-01-20T09:13:10;16.77;;;8.10;;
71867;SDS011;59738;48.324;14.230;2023-01-20T09:15:38;12.80;;;7.83;;
71867;SDS011;59738;48.324;14.230;2023-01-20T09:18:06;11.10;;;6.95;;
71867;SDS011;59738;48.324;14.230;2023-01-20T09:20:34;13.98;;;9.18;;
71867;SDS011;59738;48.324;14.230;2023-01-20T09:23:02;15.35;;;7.68;;
71867;SDS011;59738;48.324;14.230;2023-01-20T09:25:29;12.30;;;6.75;;
71867;SDS011;59738;48.324;14.230;2023-01-20T09:27:58;20.73;;;9.23;;
71867;SDS011;59738;48.324;14.230;2023-01-20T09:30:26;17.00;;;8.85;;
71867;SDS011;59738;48.324;14.230;2023-01-20T09:32:54;14.45;;;8.23;;
71867;SDS011;59738;48.324;14.230;2023-01-20T09:35:25;13.65;;;7.10;;
71867;SDS011;59738;48.324;14.230;2023-01-20T09:37:53;12.70;;;7.07;;
71867;SDS011;59738;48.324;14.230;2023-01-20T09:40:39;16.40;;;8.77;;
71867;SDS011;59738;48.324;14.230;2023-01-20T09:43:30;13.25;;;8.10;;
71867;SDS011;59738;48.324;14.230;2023-01-20T09:46:22;13.05;;;7.40;;
71867;SDS011;59738;48.324;14.230;2023-01-20T09:48:56;13.68;;;7.85;;
71867;SDS011;59738;48.324;14.230;2023-01-20T09:51:48;16.88;;;9.20;;
71867;SDS011;59738;48.324;14.230;2023-01-20T09:54:37;15.50;;;8.73;;
71867;SDS011;59738;48.324;14.230;2023-01-20T09:57:10;12.77;;;8.10;;
71867;SDS011;59738;48.324;14.230;2023-01-20T09:59:41;15.00;;;8.15;;
71867;SDS011;59738;48.324;14.230;2023-01-20T10:02:12;13.98;;;7.47;;
71867;SDS011;59738;48.324;14.230;2023-01-20T10:04:44;18.05;;;8.88;;
71867;SDS011;59738;48.324;14.230;2023-01-20T10:07:16;14.47;;;8.73;;
71867;SDS011;59738;48.324;14.230;2023-01-20T10:09:48;15.57;;;8.32;;
71867;SDS011;59738;48.324;14.230;2023-01-20T10:12:21;15.80;;;9.68;;
71867;SDS011;59738;48.324;14.230;2023-01-20T10:14:54;14.65;;;8.73;;
71867;SDS011;59738;48.324;14.230;2023-01-20T10:17:27;18.27;;;9.40;;
71867;SDS011;59738;48.324;14.230;2023-01-20T10:19:58;14.60;;;8.63;;
71867;SDS011;59738;48.324;14.230;2023-01-20T10:22:33;21.85;;;9.63;;
71867;SDS011;59738;48.324;14.230;2023-01-20T10:25:05;17.10;;;8.88;;
71867;SDS011;59738;48.324;14.230;2023-01-20T10:27:36;13.95;;;8.80;;
71867;SDS011;59738;48.324;14.230;2023-01-20T10:30:08;16.83;;;9.57;;
71867;SDS011;59738;48.324;14.230;2023-01-20T10:32:40;14.77;;;8.67;;
71867;SDS011;59738;48.324;14.230;2023-01-20T10:35:12;17.90;;;8.93;;
71867;SDS011;59738;48.324;14.230;2023-01-20T10:37:44;12.48;;;7.65;;
71867;SDS011;59738;48.324;14.230;2023-01-20T10:40:14;15.98;;;8.95;;
71867;SDS011;59738;48.324;14.230;2023-01-20T10:42:47;17.08;;;9.70;;
71867;SDS011;59738;48.324;14.230;2023-01-20T10:45:17;15.17;;;9.03;;
71867;SDS011;59738;48.324;14.230;2023-01-20T10:47:48;14.88;;;8.85;;
71867;SDS011;59738;48.324;14.230;2023-01-20T10:50:33;15.27;;;9.57;;
71867;SDS011;59738;48.324;14.230;2023-01-20T10:53:22;18.52;;;9.00;;
71867;SDS011;59738;48.324;14.230;2023-01-20T10:56:13;19.35;;;9.35;;
71867;SDS011;59738;48.324;14.230;2023-01-20T10:58:47;14.77;;;7.93;;
71867;SDS011;59738;48.324;14.230;2023-01-20T11:01:15;16.30;;;9.43;;
71867;SDS011;59738;48.324;14.230;2023-01-20T11:03:44;15.55;;;9.13;;
71867;SDS011;59738;48.324;14.230;2023-01-20T11:06:15;19.48;;;10.55;;
71867;SDS011;59738;48.324;14.230;2023-01-20T11:08:46;15.75;;;8.60;;
71867;SDS011;59738;48.324;14.230;2023-01-20T11:11:14;16.07;;;10.17;;
71867;SDS011;59738;48.324;14.230;2023-01-20T11:13:44;19.33;;;10.02;;
71867;SDS011;59738;48.324;14.230;2023-01-20T11:16:12;20.52;;;9.68;;
71867;SDS011;59738;48.324;14.230;2023-01-20T11:18:44;16.75;;;9.20;;
71867;SDS011;59738;48.324;14.230;2023-01-20T11:21:22;18.27;;;9.77;;
71867;SDS011;59738;48.324;14.230;2023-01-20T11:23:52;18.57;;;9.27;;
71867;SDS011;59738;48.324;14.230;2023-01-20T11:26:22;18.58;;;9.43;;
71867;SDS011;59738;48.324;14.230;2023-01-20T11:28:51;16.40;;;9.98;;
71867;SDS011;59738;48.324;14.230;2023-01-20T11:31:20;16.95;;;9.90;;
71867;SDS011;59738;48.324;14.230;2023-01-20T11:33:55;19.23;;;10.30;;
71867;SDS011;59738;48.324;14.230;2023-01-20T11:36:24;20.20;;;9.97;;
71867;SDS011;59738;48.324;14.230;2023-01-20T11:38:54;23.35;;;11.15;;
71867;SDS011;59738;48.324;14.230;2023-01-20T11:41:23;22.40;;;12.45;;
71867;SDS011;59738;48.324;14.230;2023-01-20T11:43:52;21.48;;;10.50;;
71867;SDS011;59738;48.324;14.230;2023-01-20T11:46:23;16.52;;;10.00;;
71867;SDS011;59738;48.324;14.230;2023-01-20T11:49:05;18.00;;;10.67;;
71867;SDS011;59738;48.324;14.230;2023-01-20T11:51:43;17.45;;;10.43;;
71867;SDS011;59738;48.324;14.230;2023-01-20T11:54:14;17.15;;;10.57;;
71867;SDS011;59738;48.324;14.230;2023-01-20T11:56:44;14.75;;;8.73;;
71867;SDS011;59738;48.324;14.230;2023-01-20T11:59:20;19.98;;;10.38;;
71867;SDS011;59738;48.324;14.230;2023-01-20T12:01:51;15.47;;;8.77;;
71867;SDS011;59738;48.324;14.230;2023-01-20T12:07:25;19.52;;;10.90;;
71867;SDS011;59738;48.324;14.230;2023-01-20T12:09:57;18.58;;;10.07;;
71867;SDS011;59738;48.324;14.230;2023-01-20T12:12:29;20.25;;;10.70;;
71867;SDS011;59738;48.324;14.230;2023-01-20T12:15:03;16.63;;;9.63;;
71867;SDS011;59738;48.324;14.230;2023-01-20T12:17:38;18.13;;;10.48;;
71867;SDS011;59738;48.324;14.230;2023-01-20T12:20:13;20.65;;;11.25;;
71867;SDS011;59738;48.324;14.230;2023-01-20T12:22:46;13.82;;;8.30;;
71867;SDS011;59738;48.324;14.230;2023-01-20T12:25:20;20.40;;;11.50;;
71867;SDS011;59738;48.324;14.230;2023-01-20T12:27:50;18.30;;;9.90;;
71867;SDS011;59738;48.324;14.230;2023-01-20T12:30:24;15.55;;;9.05;;
71867;SDS011;59738;48.324;14.230;2023-01-20T12:32:57;17.55;;;9.68;;
71867;SDS011;59738;48.324;14.230;2023-01-20T12:35:26;18.63;;;9.18;;
71867;SDS011;59738;48.324;14.230;2023-01-20T12:37:56;19.27;;;10.88;;
71867;SDS011;59738;48.324;14.230;2023-01-20T12:40:31;17.07;;;10.27;;
71867;SDS011;59738;48.324;14.230;2023-01-20T12:43:11;19.50;;;10.60;;
71867;SDS011;59738;48.324;14.230;2023-01-20T12:45:52;14.38;;;8.80;;
71867;SDS011;59738;48.324;14.230;2023-01-20T12:48:32;23.83;;;10.40;;
71867;SDS011;59738;48.324;14.230;2023-01-20T12:51:10;16.75;;;8.63;;
71867;SDS011;59738;48.324;14.230;2023-01-20T12:53:53;18.77;;;10.60;;
71867;SDS011;59738;48.324;14.230;2023-01-20T12:56:34;19.42;;;10.68;;
71867;SDS011;59738;48.324;14.230;2023-01-20T12:59:07;17.90;;;10.02;;
71867;SDS011;59738;48.324;14.230;2023-01-20T13:01:43;16.52;;;10.48;;
71867;SDS011;59738;48.324;14.230;2023-01-20T13:07:19;15.80;;;9.27;;
71867;SDS011;59738;48.324;14.230;2023-01-20T13:12:49;18.95;;;9.40;;
71867;SDS011;59738;48.324;14.230;2023-01-20T13:15:22;15.38;;;9.35;;
71867;SDS011;59738;48.324;14.230;2023-01-20T13:18:16;19.80;;;10.10;;
71867;SDS011;59738;48.324;14.230;2023-01-20T13:20:50;16.13;;;9.27;;
71867;SDS011;59738;48.324;14.230;2023-01-20T13:23:19;12.90;;;8.10;;
71867;SDS011;59738;48.324;14.230;2023-01-20T13:25:49;15.70;;;9.57;;
71867;SDS011;59738;48.324;14.230;2023-01-20T13:28:20;14.93;;;8.95;;
71867;SDS011;59738;48.324;14.230;2023-01-20T13:30:50;18.33;;;11.10;;
71867;SDS011;59738;48.324;14.230;2023-01-20T13:33:33;15.30;;;9.33;;
71867;SDS011;59738;48.324;14.230;2023-01-20T13:36:12;19.00;;;10.68;;
71867;SDS011;59738;48.324;14.230;2023-01-20T13:38:42;15.27;;;8.10;;
71867;SDS011;59738;48.324;14.230;2023-01-20T13:41:09;18.73;;;9.43;;
71867;SDS011;59738;48.324;14.230;2023-01-20T13:46:42;12.23;;;7.53;;
71867;SDS011;59738;48.324;14.230;2023-01-20T13:49:22;10.55;;;7.50;;
71867;SDS011;59738;48.324;14.230;2023-01-20T13:52:05;18.83;;;10.50;;
71867;SDS011;59738;48.324;14.230;2023-01-20T13:54:35;17.77;;;10.25;;
71867;SDS011;59738;48.324;14.230;2023-01-20T14:00:17;18.17;;;9.60;;
71867;SDS011;59738;48.324;14.230;2023-01-20T14:02:46;13.90;;;8.77;;
71867;SDS011;59738;48.324;14.230;2023-01-20T14:05:25;19.10;;;10.75;;
71867;SDS011;59738;48.324;14.230;2023-01-20T14:07:55;13.10;;;7.93;;
71867;SDS011;59738;48.324;14.230;2023-01-20T14:10:22;15.38;;;9.57;;
71867;SDS011;59738;48.324;14.230;2023-01-20T14:12:50;19.97;;;10.63;;
71867;SDS011;59738;48.324;14.230;2023-01-20T14:15:26;14.93;;;8.95;;
71867;SDS011;59738;48.324;14.230;2023-01-20T14:17:58;19.10;;;9.93;;
71867;SDS011;59738;48.324;14.230;2023-01-20T14:20:27;14.98;;;8.65;;
71867;SDS011;59738;48.324;14.230;2023-01-20T14:22:55;17.90;;;10.68;;
71867;SDS011;59738;48.324;14.230;2023-01-20T14:25:58;15.80;;;10.77;;
71867;SDS011;59738;48.324;14.230;2023-01-20T14:28:27;16.10;;;9.63;;
71867;SDS011;59738;48.324;14.230;2023-01-20T14:31:13;20.38;;;12.43;;
71867;SDS011;59738;48.324;14.230;2023-01-20T14:33:43;13.95;;;9.02;;
71867;SDS011;59738;48.324;14.230;2023-01-20T14:36:13;16.08;;;9.00;;
71867;SDS011;59738;48.324;14.230;2023-01-20T14:38:42;17.30;;;10.30;;
71867;SDS011;59738;48.324;14.230;2023-01-20T14:41:26;17.63;;;10.07;;
71867;SDS011;59738;48.324;14.230;2023-01-20T14:43:56;18.35;;;10.23;;
71867;SDS011;59738;48.324;14.230;2023-01-20T14:46:25;14.90;;;8.75;;
71867;SDS011;59738;48.324;14.230;2023-01-20T14:48:54;17.58;;;9.32;;
71867;SDS011;59738;48.324;14.230;2023-01-20T14:51:22;16.87;;;10.27;;
71867;SDS011;59738;48.324;14.230;2023-01-20T14:56:55;17.95;;;9.95;;
71867;SDS011;59738;48.324;14.230;2023-01-20T14:59:23;19.17;;;9.82;;
71867;SDS011;59738;48.324;14.230;2023-01-20T15:02:01;17.58;;;9.93;;
71867;SDS011;59738;48.324;14.230;2023-01-20T15:04:33;16.23;;;9.67;;